sensor_id;sensor_type;location;lat;lon;timestamp;P1;durP1;ratioP1;P2;durP2;ratioP2
45848;SDS011;31567;54.600;9.842;2023-07-13T00:01:32;8.07;;;2.67;;
45848;SDS011;31567;54.600;9.842;2023-07-13T00:05:12;7.70;;;2.72;;
45848;SDS011;31567;54.600;9.842;2023-07-13T00:08:51;10.63;;;3.20;;
45848;SDS011;31567;54.600;9.842;2023-07-13T00:12:34;5.18;;;2.85;;
45848;SDS011;31567;54.600;9.842;2023-07-13T00:16:14;7.57;;;3.15;;
45848;SDS011;31567;54.600;9.842;2023-07-13T00:19:55;4.95;;;3.03;;
45848;SDS011;31567;54.600;9.842;2023-07-13T00:23:36;8.93;;;3.55;;
45848;SDS011;31567;54.600;9.842;2023-07-13T00:27:18;3.97;;;2.83;;
45848;SDS011;31567;54.600;9.842;2023-07-13T00:30:58;9.85;;;3.40;;
45848;SDS011;31567;54.600;9.842;2023-07-13T00:34:38;8.13;;;3.33;;
45848;SDS011;31567;54.600;9.842;2023-07-13T00:38:18;6.53;;;3.38;;
45848;SDS011;31567;54.600;9.842;2023-07-13T00:41:58;6.72;;;4.32;;
45848;SDS011;31567;54.600;9.842;2023-07-13T00:49:23;8.50;;;3.40;;
45848;SDS011;31567;54.600;9.842;2023-07-13T00:53:04;4.28;;;3.15;;
45848;SDS011;31567;54.600;9.842;2023-07-13T00:56:44;8.30;;;3.60;;
45848;SDS011;31567;54.600;9.842;2023-07-13T01:00:25;6.22;;;3.30;;
45848;SDS011;31567;54.600;9.842;2023-07-13T01:04:06;8.63;;;3.42;;
45848;SDS011;31567;54.600;9.842;2023-07-13T01:07:48;11.68;;;3.95;;
45848;SDS011;31567;54.600;9.842;2023-07-13T01:11:30;5.68;;;3.35;;
45848;SDS011;31567;54.600;9.842;2023-07-13T01:19:21;5.97;;;2.80;;
45848;SDS011;31567;54.600;9.842;2023-07-13T01:23:14;8.25;;;2.97;;
45848;SDS011;31567;54.600;9.842;2023-07-13T01:26:54;9.15;;;3.40;;
45848;SDS011;31567;54.600;9.842;2023-07-13T01:30:34;11.18;;;3.22;;
45848;SDS011;31567;54.600;9.842;2023-07-13T01:34:15;5.70;;;3.17;;
45848;SDS011;31567;54.600;9.842;2023-07-13T01:37:54;6.50;;;3.53;;
45848;SDS011;31567;54.600;9.842;2023-07-13T01:41:35;5.32;;;3.28;;
45848;SDS011;31567;54.600;9.842;2023-07-13T01:45:15;7.32;;;3.40;;
45848;SDS011;31567;54.600;9.842;2023-07-13T01:48:55;6.65;;;4.30;;
45848;SDS011;31567;54.600;9.842;2023-07-13T01:52:34;8.68;;;4.32;;
45848;SDS011;31567;54.600;9.842;2023-07-13T01:56:14;8.43;;;4.30;;
45848;SDS011;31567;54.600;9.842;2023-07-13T01:59:53;8.30;;;4.97;;
45848;SDS011;31567;54.600;9.842;2023-07-13T02:03:33;9.52;;;5.47;;
45848;SDS011;31567;54.600;9.842;2023-07-13T02:07:12;11.45;;;5.75;;
45848;SDS011;31567;54.600;9.842;2023-07-13T02:10:52;11.88;;;5.88;;
45848;SDS011;31567;54.600;9.842;2023-07-13T02:14:31;11.30;;;6.35;;
45848;SDS011;31567;54.600;9.842;2023-07-13T02:18:11;7.63;;;5.85;;
45848;SDS011;31567;54.600;9.842;2023-07-13T02:21:56;11.18;;;6.00;;
45848;SDS011;31567;54.600;9.842;2023-07-13T02:25:35;9.65;;;5.82;;
45848;SDS011;31567;54.600;9.842;2023-07-13T02:29:15;6.78;;;5.20;;
45848;SDS011;31567;54.600;9.842;2023-07-13T02:32:54;9.85;;;5.47;;
45848;SDS011;31567;54.600;9.842;2023-07-13T02:36:37;8.45;;;5.20;;
45848;SDS011;31567;54.600;9.842;2023-07-13T02:40:16;9.73;;;5.05;;
45848;SDS011;31567;54.600;9.842;2023-07-13T02:43:57;6.50;;;4.40;;
45848;SDS011;31567;54.600;9.842;2023-07-13T02:47:42;9.27;;;4.50;;
45848;SDS011;31567;54.600;9.842;2023-07-13T02:51:21;8.55;;;4.63;;
45848;SDS011;31567;54.600;9.842;2023-07-13T02:55:01;8.90;;;4.10;;
45848;SDS011;31567;54.600;9.842;2023-07-13T02:58:41;6.15;;;4.25;;
45848;SDS011;31567;54.600;9.842;2023-07-13T03:02:21;6.75;;;4.35;;
45848;SDS011;31567;54.600;9.842;2023-07-13T03:06:01;7.43;;;4.43;;
45848;SDS011;31567;54.600;9.842;2023-07-13T03:09:44;6.88;;;4.07;;
45848;SDS011;31567;54.600;9.842;2023-07-13T03:13:23;6.75;;;4.70;;
45848;SDS011;31567;54.600;9.842;2023-07-13T03:17:04;10.07;;;4.95;;
45848;SDS011;31567;54.600;9.842;2023-07-13T03:20:44;6.15;;;4.43;;
45848;SDS011;31567;54.600;9.842;2023-07-13T03:24:23;6.53;;;4.13;;
45848;SDS011;31567;54.600;9.842;2023-07-13T03:28:04;7.40;;;4.75;;
45848;SDS011;31567;54.600;9.842;2023-07-13T03:31:44;7.93;;;4.60;;
45848;SDS011;31567;54.600;9.842;2023-07-13T03:35:24;8.40;;;4.38;;
45848;SDS011;31567;54.600;9.842;2023-07-13T03:39:03;6.97;;;4.35;;
45848;SDS011;31567;54.600;9.842;2023-07-13T03:42:47;5.00;;;4.60;;
45848;SDS011;31567;54.600;9.842;2023-07-13T03:46:26;9.38;;;4.80;;
45848;SDS011;31567;54.600;9.842;2023-07-13T03:50:07;5.82;;;4.80;;
45848;SDS011;31567;54.600;9.842;2023-07-13T03:53:47;4.68;;;4.13;;
45848;SDS011;31567;54.600;9.842;2023-07-13T03:57:27;10.07;;;4.82;;
45848;SDS011;31567;54.600;9.842;2023-07-13T04:01:07;11.98;;;4.65;;
45848;SDS011;31567;54.600;9.842;2023-07-13T04:04:47;9.85;;;4.90;;
45848;SDS011;31567;54.600;9.842;2023-07-13T04:08:28;7.70;;;4.72;;
45848;SDS011;31567;54.600;9.842;2023-07-13T04:12:08;7.43;;;4.72;;
45848;SDS011;31567;54.600;9.842;2023-07-13T04:15:48;6.43;;;4.55;;
45848;SDS011;31567;54.600;9.842;2023-07-13T04:19:28;7.47;;;4.63;;
45848;SDS011;31567;54.600;9.842;2023-07-13T04:23:07;5.28;;;4.20;;
45848;SDS011;31567;54.600;9.842;2023-07-13T04:26:47;8.98;;;4.32;;
45848;SDS011;31567;54.600;9.842;2023-07-13T04:30:26;9.23;;;4.45;;
45848;SDS011;31567;54.600;9.842;2023-07-13T04:34:06;6.03;;;4.05;;
45848;SDS011;31567;54.600;9.842;2023-07-13T04:37:46;5.97;;;4.18;;
45848;SDS011;31567;54.600;9.842;2023-07-13T04:41:29;7.50;;;4.32;;
45848;SDS011;31567;54.600;9.842;2023-07-13T04:45:09;8.13;;;3.75;;
45848;SDS011;31567;54.600;9.842;2023-07-13T04:48:49;7.75;;;4.07;;
45848;SDS011;31567;54.600;9.842;2023-07-13T04:52:32;7.90;;;5.00;;
45848;SDS011;31567;54.600;9.842;2023-07-13T04:56:12;10.82;;;4.40;;
45848;SDS011;31567;54.600;9.842;2023-07-13T04:59:51;10.68;;;4.22;;
45848;SDS011;31567;54.600;9.842;2023-07-13T05:03:31;11.05;;;4.50;;
45848;SDS011;31567;54.600;9.842;2023-07-13T05:07:11;6.93;;;4.63;;
45848;SDS011;31567;54.600;9.842;2023-07-13T05:10:51;6.18;;;4.05;;
45848;SDS011;31567;54.600;9.842;2023-07-13T05:14:31;10.40;;;4.60;;
45848;SDS011;31567;54.600;9.842;2023-07-13T05:18:10;10.82;;;4.20;;
45848;SDS011;31567;54.600;9.842;2023-07-13T05:21:50;10.68;;;4.00;;
45848;SDS011;31567;54.600;9.842;2023-07-13T05:25:29;4.60;;;3.15;;
45848;SDS011;31567;54.600;9.842;2023-07-13T05:29:09;3.20;;;2.00;;
45848;SDS011;31567;54.600;9.842;2023-07-13T05:32:48;5.25;;;2.30;;
45848;SDS011;31567;54.600;9.842;2023-07-13T05:36:28;2.42;;;1.65;;
45848;SDS011;31567;54.600;9.842;2023-07-13T05:40:08;2.90;;;1.40;;
45848;SDS011;31567;54.600;9.842;2023-07-13T05:43:47;2.58;;;1.00;;
45848;SDS011;31567;54.600;9.842;2023-07-13T05:47:27;1.83;;;0.75;;
45848;SDS011;31567;54.600;9.842;2023-07-13T05:51:06;1.23;;;0.88;;
45848;SDS011;31567;54.600;9.842;2023-07-13T05:54:46;1.73;;;0.80;;
45848;SDS011;31567;54.600;9.842;2023-07-13T05:58:25;1.85;;;0.93;;
45848;SDS011;31567;54.600;9.842;2023-07-13T06:02:05;2.63;;;0.63;;
45848;SDS011;31567;54.600;9.842;2023-07-13T06:05:48;2.33;;;0.75;;
45848;SDS011;31567;54.600;9.842;2023-07-13T06:09:28;2.30;;;0.70;;
45848;SDS011;31567;54.600;9.842;2023-07-13T06:13:07;2.28;;;0.70;;
45848;SDS011;31567;54.600;9.842;2023-07-13T06:16:47;1.48;;;0.70;;
45848;SDS011;31567;54.600;9.842;2023-07-13T06:20:26;1.65;;;0.70;;
45848;SDS011;31567;54.600;9.842;2023-07-13T06:24:07;1.02;;;0.70;;
45848;SDS011;31567;54.600;9.842;2023-07-13T06:27:47;1.02;;;0.80;;
45848;SDS011;31567;54.600;9.842;2023-07-13T06:31:27;1.05;;;0.50;;
45848;SDS011;31567;54.600;9.842;2023-07-13T06:35:06;1.38;;;0.70;;
45848;SDS011;31567;54.600;9.842;2023-07-13T06:38:46;0.63;;;0.60;;
45848;SDS011;31567;54.600;9.842;2023-07-13T06:42:25;1.70;;;0.73;;
45848;SDS011;31567;54.600;9.842;2023-07-13T06:46:05;1.42;;;0.50;;
45848;SDS011;31567;54.600;9.842;2023-07-13T06:49:44;2.63;;;1.00;;
45848;SDS011;31567;54.600;9.842;2023-07-13T06:53:24;4.47;;;1.65;;
45848;SDS011;31567;54.600;9.842;2023-07-13T06:57:03;6.20;;;1.75;;
45848;SDS011;31567;54.600;9.842;2023-07-13T07:00:43;3.83;;;1.77;;
45848;SDS011;31567;54.600;9.842;2023-07-13T07:04:23;1.90;;;1.77;;
45848;SDS011;31567;54.600;9.842;2023-07-13T07:08:03;4.72;;;2.28;;
45848;SDS011;31567;54.600;9.842;2023-07-13T07:11:43;4.57;;;2.85;;
45848;SDS011;31567;54.600;9.842;2023-07-13T07:15:22;8.52;;;2.70;;
45848;SDS011;31567;54.600;9.842;2023-07-13T07:19:02;4.03;;;2.63;;
45848;SDS011;31567;54.600;9.842;2023-07-13T07:22:41;7.50;;;2.88;;
45848;SDS011;31567;54.600;9.842;2023-07-13T07:26:21;6.30;;;3.33;;
45848;SDS011;31567;54.600;9.842;2023-07-13T07:30:00;6.63;;;3.10;;
45848;SDS011;31567;54.600;9.842;2023-07-13T07:33:40;7.00;;;3.60;;
45848;SDS011;31567;54.600;9.842;2023-07-13T07:37:20;5.82;;;2.80;;
45848;SDS011;31567;54.600;9.842;2023-07-13T07:41:02;4.78;;;2.70;;
45848;SDS011;31567;54.600;9.842;2023-07-13T07:44:44;6.80;;;1.92;;
45848;SDS011;31567;54.600;9.842;2023-07-13T07:48:24;3.60;;;2.20;;
45848;SDS011;31567;54.600;9.842;2023-07-13T07:52:04;4.63;;;1.70;;
45848;SDS011;31567;54.600;9.842;2023-07-13T07:55:44;2.67;;;1.52;;
45848;SDS011;31567;54.600;9.842;2023-07-13T07:59:24;6.28;;;2.10;;
45848;SDS011;31567;54.600;9.842;2023-07-13T08:03:03;6.60;;;1.85;;
45848;SDS011;31567;54.600;9.842;2023-07-13T08:06:43;6.68;;;2.05;;
45848;SDS011;31567;54.600;9.842;2023-07-13T08:10:23;7.78;;;2.17;;
45848;SDS011;31567;54.600;9.842;2023-07-13T08:14:02;6.93;;;1.90;;
45848;SDS011;31567;54.600;9.842;2023-07-13T08:17:42;5.85;;;1.95;;
45848;SDS011;31567;54.600;9.842;2023-07-13T08:21:22;4.82;;;1.45;;
45848;SDS011;31567;54.600;9.842;2023-07-13T08:25:01;4.72;;;1.88;;
45848;SDS011;31567;54.600;9.842;2023-07-13T08:28:41;3.85;;;2.03;;
45848;SDS011;31567;54.600;9.842;2023-07-13T08:32:21;3.67;;;1.80;;
45848;SDS011;31567;54.600;9.842;2023-07-13T08:36:02;2.80;;;1.58;;
45848;SDS011;31567;54.600;9.842;2023-07-13T08:39:42;4.70;;;1.35;;
45848;SDS011;31567;54.600;9.842;2023-07-13T08:43:30;4.15;;;1.25;;
45848;SDS011;31567;54.600;9.842;2023-07-13T08:47:14;3.00;;;1.08;;
45848;SDS011;31567;54.600;9.842;2023-07-13T08:54:51;2.63;;;1.10;;
45848;SDS011;31567;54.600;9.842;2023-07-13T08:58:34;3.60;;;1.20;;
45848;SDS011;31567;54.600;9.842;2023-07-13T09:06:13;3.90;;;1.27;;
45848;SDS011;31567;54.600;9.842;2023-07-13T09:10:37;3.55;;;1.10;;
45848;SDS011;31567;54.600;9.842;2023-07-13T09:17:54;4.55;;;1.90;;
45848;SDS011;31567;54.600;9.842;2023-07-13T09:21:39;4.95;;;1.42;;
45848;SDS011;31567;54.600;9.842;2023-07-13T09:29:21;5.20;;;2.25;;
45848;SDS011;31567;54.600;9.842;2023-07-13T09:33:13;5.95;;;1.30;;
45848;SDS011;31567;54.600;9.842;2023-07-13T09:36:53;5.10;;;1.40;;
45848;SDS011;31567;54.600;9.842;2023-07-13T09:40:36;5.82;;;1.23;;
45848;SDS011;31567;54.600;9.842;2023-07-13T09:44:19;4.50;;;1.20;;
45848;SDS011;31567;54.600;9.842;2023-07-13T09:48:11;6.13;;;1.40;;
45848;SDS011;31567;54.600;9.842;2023-07-13T09:51:57;7.05;;;1.80;;
45848;SDS011;31567;54.600;9.842;2023-07-13T09:55:40;3.47;;;1.30;;
45848;SDS011;31567;54.600;9.842;2023-07-13T09:59:22;2.53;;;1.10;;
45848;SDS011;31567;54.600;9.842;2023-07-13T10:03:19;6.68;;;1.90;;
45848;SDS011;31567;54.600;9.842;2023-07-13T10:07:04;5.55;;;1.95;;
45848;SDS011;31567;54.600;9.842;2023-07-13T10:10:46;5.38;;;1.50;;
45848;SDS011;31567;54.600;9.842;2023-07-13T10:14:31;4.07;;;1.43;;
45848;SDS011;31567;54.600;9.842;2023-07-13T10:18:11;3.38;;;0.98;;
45848;SDS011;31567;54.600;9.842;2023-07-13T10:21:58;2.92;;;1.17;;
45848;SDS011;31567;54.600;9.842;2023-07-13T10:25:41;3.90;;;1.00;;
45848;SDS011;31567;54.600;9.842;2023-07-13T10:29:24;6.22;;;1.63;;
45848;SDS011;31567;54.600;9.842;2023-07-13T10:33:10;3.58;;;1.70;;
45848;SDS011;31567;54.600;9.842;2023-07-13T10:36:51;8.27;;;2.30;;
45848;SDS011;31567;54.600;9.842;2023-07-13T10:40:35;5.50;;;2.30;;
45848;SDS011;31567;54.600;9.842;2023-07-13T10:44:24;4.30;;;1.70;;
45848;SDS011;31567;54.600;9.842;2023-07-13T10:48:08;4.25;;;1.40;;
45848;SDS011;31567;54.600;9.842;2023-07-13T10:51:52;2.63;;;0.95;;
45848;SDS011;31567;54.600;9.842;2023-07-13T10:55:36;2.08;;;1.30;;
45848;SDS011;31567;54.600;9.842;2023-07-13T10:59:23;2.83;;;0.90;;
45848;SDS011;31567;54.600;9.842;2023-07-13T11:03:13;2.92;;;1.05;;
45848;SDS011;31567;54.600;9.842;2023-07-13T11:18:19;6.07;;;1.27;;
45848;SDS011;31567;54.600;9.842;2023-07-13T11:25:52;6.00;;;1.67;;
45848;SDS011;31567;54.600;9.842;2023-07-13T11:33:16;7.25;;;1.50;;
45848;SDS011;31567;54.600;9.842;2023-07-13T11:36:58;5.93;;;1.23;;
45848;SDS011;31567;54.600;9.842;2023-07-13T11:40:39;2.88;;;1.00;;
45848;SDS011;31567;54.600;9.842;2023-07-13T11:44:21;1.50;;;1.08;;
45848;SDS011;31567;54.600;9.842;2023-07-13T11:48:02;3.95;;;1.23;;
45848;SDS011;31567;54.600;9.842;2023-07-13T11:51:41;1.58;;;0.90;;
45848;SDS011;31567;54.600;9.842;2023-07-13T11:55:23;3.33;;;1.25;;
45848;SDS011;31567;54.600;9.842;2023-07-13T11:59:04;4.45;;;1.55;;
45848;SDS011;31567;54.600;9.842;2023-07-13T12:02:47;2.95;;;1.33;;
45848;SDS011;31567;54.600;9.842;2023-07-13T12:06:32;4.53;;;1.20;;
45848;SDS011;31567;54.600;9.842;2023-07-13T12:10:17;2.65;;;1.05;;
45848;SDS011;31567;54.600;9.842;2023-07-13T12:14:02;3.75;;;1.15;;
45848;SDS011;31567;54.600;9.842;2023-07-13T12:17:42;3.28;;;0.80;;
45848;SDS011;31567;54.600;9.842;2023-07-13T12:21:23;3.10;;;0.70;;
45848;SDS011;31567;54.600;9.842;2023-07-13T12:25:11;6.50;;;1.45;;
45848;SDS011;31567;54.600;9.842;2023-07-13T12:28:52;2.28;;;0.88;;
45848;SDS011;31567;54.600;9.842;2023-07-13T12:32:35;4.82;;;0.90;;
45848;SDS011;31567;54.600;9.842;2023-07-13T12:36:14;0.80;;;0.60;;
45848;SDS011;31567;54.600;9.842;2023-07-13T12:39:55;4.82;;;1.23;;
45848;SDS011;31567;54.600;9.842;2023-07-13T12:43:36;3.15;;;0.90;;
45848;SDS011;31567;54.600;9.842;2023-07-13T12:47:16;3.55;;;1.13;;
45848;SDS011;31567;54.600;9.842;2023-07-13T12:51:00;3.05;;;0.60;;
45848;SDS011;31567;54.600;9.842;2023-07-13T12:54:40;2.17;;;1.10;;
45848;SDS011;31567;54.600;9.842;2023-07-13T12:58:35;3.60;;;0.75;;
45848;SDS011;31567;54.600;9.842;2023-07-13T13:02:21;2.83;;;0.77;;
45848;SDS011;31567;54.600;9.842;2023-07-13T13:06:05;3.75;;;1.05;;
45848;SDS011;31567;54.600;9.842;2023-07-13T13:09:58;5.05;;;0.90;;
45848;SDS011;31567;54.600;9.842;2023-07-13T13:13:37;3.47;;;0.73;;
45848;SDS011;31567;54.600;9.842;2023-07-13T13:17:24;3.33;;;0.90;;
45848;SDS011;31567;54.600;9.842;2023-07-13T13:21:06;0.95;;;0.50;;
45848;SDS011;31567;54.600;9.842;2023-07-13T13:24:47;2.45;;;0.70;;
45848;SDS011;31567;54.600;9.842;2023-07-13T13:28:27;3.35;;;0.85;;
45848;SDS011;31567;54.600;9.842;2023-07-13T13:32:09;4.25;;;1.67;;
45848;SDS011;31567;54.600;9.842;2023-07-13T13:35:51;2.40;;;0.50;;
45848;SDS011;31567;54.600;9.842;2023-07-13T13:39:33;2.55;;;1.00;;
45848;SDS011;31567;54.600;9.842;2023-07-13T13:43:17;3.35;;;1.13;;
45848;SDS011;31567;54.600;9.842;2023-07-13T13:47:00;4.88;;;1.23;;
45848;SDS011;31567;54.600;9.842;2023-07-13T13:50:41;3.33;;;1.05;;
45848;SDS011;31567;54.600;9.842;2023-07-13T13:54:21;8.45;;;1.55;;
45848;SDS011;31567;54.600;9.842;2023-07-13T13:58:02;3.65;;;1.38;;
45848;SDS011;31567;54.600;9.842;2023-07-13T14:01:43;1.98;;;0.52;;
45848;SDS011;31567;54.600;9.842;2023-07-13T14:05:24;1.35;;;0.60;;
45848;SDS011;31567;54.600;9.842;2023-07-13T14:09:08;2.60;;;0.45;;
45848;SDS011;31567;54.600;9.842;2023-07-13T14:12:53;2.60;;;0.80;;
45848;SDS011;31567;54.600;9.842;2023-07-13T14:16:35;2.35;;;0.50;;
45848;SDS011;31567;54.600;9.842;2023-07-13T14:20:14;1.23;;;0.50;;
45848;SDS011;31567;54.600;9.842;2023-07-13T14:23:54;2.70;;;0.40;;
45848;SDS011;31567;54.600;9.842;2023-07-13T14:27:34;1.15;;;0.40;;
45848;SDS011;31567;54.600;9.842;2023-07-13T14:31:14;1.92;;;0.45;;
45848;SDS011;31567;54.600;9.842;2023-07-13T14:34:55;2.33;;;0.52;;
45848;SDS011;31567;54.600;9.842;2023-07-13T14:38:36;1.27;;;0.40;;
45848;SDS011;31567;54.600;9.842;2023-07-13T14:42:15;1.65;;;0.52;;
45848;SDS011;31567;54.600;9.842;2023-07-13T14:45:55;2.45;;;0.57;;
45848;SDS011;31567;54.600;9.842;2023-07-13T14:49:42;3.30;;;0.90;;
45848;SDS011;31567;54.600;9.842;2023-07-13T14:53:24;3.47;;;0.70;;
45848;SDS011;31567;54.600;9.842;2023-07-13T14:57:10;4.85;;;1.00;;
45848;SDS011;31567;54.600;9.842;2023-07-13T15:00:51;2.90;;;0.73;;
45848;SDS011;31567;54.600;9.842;2023-07-13T15:04:34;3.17;;;0.73;;
45848;SDS011;31567;54.600;9.842;2023-07-13T15:08:13;3.78;;;1.35;;
45848;SDS011;31567;54.600;9.842;2023-07-13T15:11:55;5.35;;;1.20;;
45848;SDS011;31567;54.600;9.842;2023-07-13T15:15:35;3.65;;;1.30;;
45848;SDS011;31567;54.600;9.842;2023-07-13T15:19:16;8.05;;;1.20;;
45848;SDS011;31567;54.600;9.842;2023-07-13T15:22:56;4.20;;;0.90;;
45848;SDS011;31567;54.600;9.842;2023-07-13T15:26:36;3.58;;;1.08;;
45848;SDS011;31567;54.600;9.842;2023-07-13T15:30:15;3.53;;;0.95;;
45848;SDS011;31567;54.600;9.842;2023-07-13T15:33:56;4.65;;;0.90;;
45848;SDS011;31567;54.600;9.842;2023-07-13T15:37:36;4.72;;;1.00;;
45848;SDS011;31567;54.600;9.842;2023-07-13T15:41:34;5.32;;;0.98;;
45848;SDS011;31567;54.600;9.842;2023-07-13T15:45:18;3.70;;;0.77;;
45848;SDS011;31567;54.600;9.842;2023-07-13T15:49:04;5.00;;;1.30;;
45848;SDS011;31567;54.600;9.842;2023-07-13T15:52:49;3.47;;;0.80;;
45848;SDS011;31567;54.600;9.842;2023-07-13T15:56:34;3.13;;;1.00;;
45848;SDS011;31567;54.600;9.842;2023-07-13T16:00:20;3.40;;;0.88;;
45848;SDS011;31567;54.600;9.842;2023-07-13T16:04:02;2.77;;;1.50;;
45848;SDS011;31567;54.600;9.842;2023-07-13T16:07:45;6.65;;;1.40;;
45848;SDS011;31567;54.600;9.842;2023-07-13T16:11:29;4.85;;;1.50;;
45848;SDS011;31567;54.600;9.842;2023-07-13T16:15:15;6.50;;;1.25;;
45848;SDS011;31567;54.600;9.842;2023-07-13T16:18:58;5.65;;;1.08;;
45848;SDS011;31567;54.600;9.842;2023-07-13T16:22:39;6.72;;;0.90;;
45848;SDS011;31567;54.600;9.842;2023-07-13T16:30:11;3.10;;;1.00;;
45848;SDS011;31567;54.600;9.842;2023-07-13T16:33:56;4.70;;;1.05;;
45848;SDS011;31567;54.600;9.842;2023-07-13T16:37:37;3.78;;;0.80;;
45848;SDS011;31567;54.600;9.842;2023-07-13T16:41:17;3.22;;;1.05;;
45848;SDS011;31567;54.600;9.842;2023-07-13T16:44:57;8.07;;;1.23;;
45848;SDS011;31567;54.600;9.842;2023-07-13T16:48:37;4.53;;;1.10;;
45848;SDS011;31567;54.600;9.842;2023-07-13T16:52:17;4.75;;;1.02;;
45848;SDS011;31567;54.600;9.842;2023-07-13T16:56:00;4.63;;;1.25;;
45848;SDS011;31567;54.600;9.842;2023-07-13T16:59:44;3.53;;;1.40;;
45848;SDS011;31567;54.600;9.842;2023-07-13T17:03:25;4.97;;;1.35;;
45848;SDS011;31567;54.600;9.842;2023-07-13T17:07:06;6.25;;;1.35;;
45848;SDS011;31567;54.600;9.842;2023-07-13T17:10:48;3.45;;;0.80;;
45848;SDS011;31567;54.600;9.842;2023-07-13T17:14:28;4.85;;;1.10;;
45848;SDS011;31567;54.600;9.842;2023-07-13T17:18:13;2.83;;;0.77;;
45848;SDS011;31567;54.600;9.842;2023-07-13T17:21:53;2.13;;;0.60;;
45848;SDS011;31567;54.600;9.842;2023-07-13T17:25:33;3.50;;;0.70;;
45848;SDS011;31567;54.600;9.842;2023-07-13T17:29:14;2.22;;;0.70;;
45848;SDS011;31567;54.600;9.842;2023-07-13T17:32:53;2.78;;;0.80;;
45848;SDS011;31567;54.600;9.842;2023-07-13T17:36:34;3.22;;;1.15;;
45848;SDS011;31567;54.600;9.842;2023-07-13T17:40:14;2.65;;;0.93;;
45848;SDS011;31567;54.600;9.842;2023-07-13T17:43:56;4.35;;;1.45;;
45848;SDS011;31567;54.600;9.842;2023-07-13T17:47:36;5.57;;;1.20;;
45848;SDS011;31567;54.600;9.842;2023-07-13T17:51:17;4.15;;;0.82;;
45848;SDS011;31567;54.600;9.842;2023-07-13T17:54:59;4.90;;;0.98;;
45848;SDS011;31567;54.600;9.842;2023-07-13T17:58:42;5.38;;;1.80;;
45848;SDS011;31567;54.600;9.842;2023-07-13T18:02:22;2.95;;;0.65;;
45848;SDS011;31567;54.600;9.842;2023-07-13T18:06:03;2.42;;;0.68;;
45848;SDS011;31567;54.600;9.842;2023-07-13T18:09:43;2.38;;;0.70;;
45848;SDS011;31567;54.600;9.842;2023-07-13T18:13:25;2.63;;;0.77;;
45848;SDS011;31567;54.600;9.842;2023-07-13T18:17:07;1.60;;;0.52;;
45848;SDS011;31567;54.600;9.842;2023-07-13T18:20:51;2.75;;;0.50;;
45848;SDS011;31567;54.600;9.842;2023-07-13T18:24:31;3.00;;;0.70;;
45848;SDS011;31567;54.600;9.842;2023-07-13T18:28:11;3.00;;;0.60;;
45848;SDS011;31567;54.600;9.842;2023-07-13T18:31:52;2.40;;;0.70;;
45848;SDS011;31567;54.600;9.842;2023-07-13T18:35:32;1.25;;;0.65;;
45848;SDS011;31567;54.600;9.842;2023-07-13T18:39:14;3.00;;;1.10;;
45848;SDS011;31567;54.600;9.842;2023-07-13T18:42:54;3.13;;;0.80;;
45848;SDS011;31567;54.600;9.842;2023-07-13T18:46:34;4.22;;;1.10;;
45848;SDS011;31567;54.600;9.842;2023-07-13T18:50:24;4.10;;;0.85;;
45848;SDS011;31567;54.600;9.842;2023-07-13T18:54:14;4.25;;;0.90;;
45848;SDS011;31567;54.600;9.842;2023-07-13T18:57:54;4.45;;;0.63;;
45848;SDS011;31567;54.600;9.842;2023-07-13T19:01:34;3.50;;;1.00;;
45848;SDS011;31567;54.600;9.842;2023-07-13T19:05:16;2.70;;;0.63;;
45848;SDS011;31567;54.600;9.842;2023-07-13T19:08:56;5.10;;;1.00;;
45848;SDS011;31567;54.600;9.842;2023-07-13T19:12:36;4.78;;;0.85;;
45848;SDS011;31567;54.600;9.842;2023-07-13T19:16:17;3.45;;;0.90;;
45848;SDS011;31567;54.600;9.842;2023-07-13T19:19:57;2.30;;;0.85;;
45848;SDS011;31567;54.600;9.842;2023-07-13T19:23:37;2.38;;;0.90;;
45848;SDS011;31567;54.600;9.842;2023-07-13T19:27:20;3.55;;;1.00;;
45848;SDS011;31567;54.600;9.842;2023-07-13T19:31:00;2.17;;;1.05;;
45848;SDS011;31567;54.600;9.842;2023-07-13T19:34:39;5.95;;;1.08;;
45848;SDS011;31567;54.600;9.842;2023-07-13T19:38:21;3.25;;;1.40;;
45848;SDS011;31567;54.600;9.842;2023-07-13T19:42:03;4.50;;;1.63;;
45848;SDS011;31567;54.600;9.842;2023-07-13T19:45:50;6.28;;;1.40;;
45848;SDS011;31567;54.600;9.842;2023-07-13T19:49:32;2.63;;;1.15;;
45848;SDS011;31567;54.600;9.842;2023-07-13T19:53:14;4.90;;;1.27;;
45848;SDS011;31567;54.600;9.842;2023-07-13T19:56:57;3.47;;;1.30;;
45848;SDS011;31567;54.600;9.842;2023-07-13T20:00:36;5.90;;;1.55;;
45848;SDS011;31567;54.600;9.842;2023-07-13T20:04:17;4.55;;;1.55;;
45848;SDS011;31567;54.600;9.842;2023-07-13T20:07:58;4.20;;;1.25;;
45848;SDS011;31567;54.600;9.842;2023-07-13T20:11:39;3.20;;;1.20;;
45848;SDS011;31567;54.600;9.842;2023-07-13T20:15:19;4.28;;;1.90;;
45848;SDS011;31567;54.600;9.842;2023-07-13T20:19:00;3.47;;;1.60;;
45848;SDS011;31567;54.600;9.842;2023-07-13T20:22:40;7.00;;;1.50;;
45848;SDS011;31567;54.600;9.842;2023-07-13T20:26:19;2.75;;;1.30;;
45848;SDS011;31567;54.600;9.842;2023-07-13T20:30:00;3.13;;;1.65;;
45848;SDS011;31567;54.600;9.842;2023-07-13T20:33:40;7.88;;;2.80;;
45848;SDS011;31567;54.600;9.842;2023-07-13T20:37:22;6.68;;;2.30;;
45848;SDS011;31567;54.600;9.842;2023-07-13T20:41:17;8.98;;;2.33;;
45848;SDS011;31567;54.600;9.842;2023-07-13T20:44:56;3.67;;;1.70;;
45848;SDS011;31567;54.600;9.842;2023-07-13T20:48:37;5.95;;;2.00;;
45848;SDS011;31567;54.600;9.842;2023-07-13T20:52:18;6.07;;;1.75;;
45848;SDS011;31567;54.600;9.842;2023-07-13T20:55:58;5.53;;;2.00;;
45848;SDS011;31567;54.600;9.842;2023-07-13T20:59:38;5.05;;;2.35;;
45848;SDS011;31567;54.600;9.842;2023-07-13T21:03:22;4.88;;;1.92;;
45848;SDS011;31567;54.600;9.842;2023-07-13T21:10:48;4.43;;;1.92;;
45848;SDS011;31567;54.600;9.842;2023-07-13T21:14:28;6.60;;;2.17;;
45848;SDS011;31567;54.600;9.842;2023-07-13T21:18:12;4.80;;;2.10;;
45848;SDS011;31567;54.600;9.842;2023-07-13T21:21:58;6.70;;;2.30;;
45848;SDS011;31567;54.600;9.842;2023-07-13T21:25:38;4.50;;;2.50;;
45848;SDS011;31567;54.600;9.842;2023-07-13T21:29:18;7.10;;;2.97;;
45848;SDS011;31567;54.600;9.842;2023-07-13T21:32:57;4.38;;;2.22;;
45848;SDS011;31567;54.600;9.842;2023-07-13T21:36:38;7.45;;;2.70;;
45848;SDS011;31567;54.600;9.842;2023-07-13T21:40:18;6.65;;;3.15;;
45848;SDS011;31567;54.600;9.842;2023-07-13T21:43:59;7.38;;;2.92;;
45848;SDS011;31567;54.600;9.842;2023-07-13T21:47:39;8.57;;;3.00;;
45848;SDS011;31567;54.600;9.842;2023-07-13T21:51:25;8.18;;;3.03;;
45848;SDS011;31567;54.600;9.842;2023-07-13T21:55:23;5.50;;;3.00;;
45848;SDS011;31567;54.600;9.842;2023-07-13T21:59:13;5.35;;;2.80;;
45848;SDS011;31567;54.600;9.842;2023-07-13T22:02:59;8.88;;;3.08;;
45848;SDS011;31567;54.600;9.842;2023-07-13T22:06:38;5.13;;;2.33;;
45848;SDS011;31567;54.600;9.842;2023-07-13T22:10:19;6.38;;;2.28;;
45848;SDS011;31567;54.600;9.842;2023-07-13T22:14:00;8.23;;;2.63;;
45848;SDS011;31567;54.600;9.842;2023-07-13T22:17:40;7.45;;;2.83;;
45848;SDS011;31567;54.600;9.842;2023-07-13T22:21:25;4.85;;;2.80;;
45848;SDS011;31567;54.600;9.842;2023-07-13T22:25:07;5.95;;;2.70;;
45848;SDS011;31567;54.600;9.842;2023-07-13T22:28:51;7.55;;;3.00;;
45848;SDS011;31567;54.600;9.842;2023-07-13T22:32:33;8.65;;;2.33;;
45848;SDS011;31567;54.600;9.842;2023-07-13T22:36:13;5.47;;;2.97;;
45848;SDS011;31567;54.600;9.842;2023-07-13T22:39:54;8.63;;;2.55;;
45848;SDS011;31567;54.600;9.842;2023-07-13T22:43:33;5.25;;;2.60;;
45848;SDS011;31567;54.600;9.842;2023-07-13T22:47:14;5.63;;;2.55;;
45848;SDS011;31567;54.600;9.842;2023-07-13T22:50:55;9.88;;;3.40;;
45848;SDS011;31567;54.600;9.842;2023-07-13T22:54:34;6.00;;;2.58;;
45848;SDS011;31567;54.600;9.842;2023-07-13T22:58:14;9.48;;;3.45;;
45848;SDS011;31567;54.600;9.842;2023-07-13T23:01:54;10.05;;;3.97;;
45848;SDS011;31567;54.600;9.842;2023-07-13T23:05:35;9.63;;;3.97;;